Grass Valley, CA (95949)

3:50 PM PST on February 13, 2016 (GMT -0800)
Alta Sierra | | Change Station
CLOSE
Current Station
Personal Weather Station
Location: Grass Valley, CA
Elevation: 2350 ft
Nearby Weather Stations

Elev 2350 ft 39.12 °N, 121.06 °W | Updated 12 seconds ago

Clear
Clear
69.4 °F
Feels Like 69.4 °F
N
3.6
Wind Variable Wind from NW
Gusts 4.9 mph

Today
High -- | Low -- °F
--% Chance of Precip.
Yesterday
High -- | Low -- °F
Precip. -- in
Pressure 30.26 in
Visibility 10.0 miles
Clouds Clear
Dew Point 50 °F
Humidity 50%
Rainfall 0.00 in
Snow Depth Not available.
6:58 AM 5:38 PM
Waxing Crescent, 35% visible
METAR KGOO 132335Z AUTO 30006KT 10SM CLR 18/04 A3026 RMK AO1
Pressure 30.26 in
Visibility 10.0 miles
Clouds Clear
Dew Point 50 °F
Humidity 50%
Rainfall 0.00 in
Snow Depth Not available.
6:58 AM 5:38 PM
Waxing Crescent, 35% visible
METAR KGOO 132335Z AUTO 30006KT 10SM CLR 18/04 A3026 RMK AO1

10-Day Weather Forecast

Almanac

Astronomy

Feb. 13, 2016 Rise Set
Actual Time
Civil Twilight
Nautical Twilight
Astronomical Twilight
Moon
Length of Visible Light
Length of Day
Tomorrow will be .
, % of the Moon is Illuminated

Today's Extremes

State Highs State Lows

Community

WunderPhotos

Upload Photos

1,892,705 photos uploaded!

WunderBlog® & News

Nearby

Air Quality

  Air Quality AQ Index Pollutant
Not available.

Snow Depth

Station Depth Elevation

Earthquake Activity

City Distance Mag. Time & Date
Minimum magnitude displayed is 2.5.

Coastal Water Temperatures

Place Temperature

Stations

Nearby Weather Stations

Station Location Temp. Windchill Dew Point Humidity Wind Precip. Elev Updated Type
                   

Watches & Warnings

There are currently no watches in effect.